Time;durP1;ratioP1;P1;durP2;ratioP2;P2;SDS_P1;SDS_P2;PMS_P1;PMS_P2;Temp;Humidity;BMP_temperature;BMP_pressure;BME280_temperature;BME280_humidity;BME280_pressure;Samples;Min_cycle;Max_cycle;Signal;HPM_P1;HPM_P2
2021/12/10 00:00:27;;;;;;;124.55;34.85;;;;;;;;;;5039430;28;20028;-80
2021/12/10 00:02:52;;;;;;;116.43;32.17;;;;;;;;;;5056379;28;20078;-81
2021/12/10 00:05:25;;;;;;;123.55;34.08;;;;;;;;;;5057341;28;20025;-81
2021/12/10 00:07:51;;;;;;;120.57;33.72;;;;;;;;;;5057220;28;20037;-80
2021/12/10 00:10:21;;;;;;;115.28;33.35;;;;;;;;;;5055958;28;20086;-80
2021/12/10 00:12:50;;;;;;;106.55;33.28;;;;;;;;;;5055880;28;20057;-80
2021/12/10 00:15:21;;;;;;;122.38;33.17;;;;;;;;;;5057144;28;20068;-80
2021/12/10 00:17:46;;;;;;;105.38;32.25;;;;;;;;;;5057587;28;20040;-80
2021/12/10 00:20:12;;;;;;;120.38;34.83;;;;;;;;;;5060137;28;20033;-80
2021/12/10 00:22:45;;;;;;;102.65;31.05;;;;;;;;;;5022604;28;20037;-80
2021/12/10 00:25:16;;;;;;;114.60;31.98;;;;;;;;;;5039777;28;20028;-80
2021/12/10 00:27:42;;;;;;;113.53;31.88;;;;;;;;;;5056004;28;20028;-80
2021/12/10 00:30:23;;;;;;;124.65;33.33;;;;;;;;;;5055688;28;20455;-80
2021/12/10 00:33:13;;;;;;;107.15;33.60;;;;;;;;;;5055607;28;20448;-80
2021/12/10 00:35:39;;;;;;;127.65;34.80;;;;;;;;;;5056723;28;20029;-80
2021/12/10 00:38:04;;;;;;;127.43;34.33;;;;;;;;;;5056441;28;20090;-80
2021/12/10 00:40:30;;;;;;;137.25;34.58;;;;;;;;;;5056304;28;20025;-80
2021/12/10 00:42:56;;;;;;;122.88;34.45;;;;;;;;;;5055843;28;20025;-80
2021/12/10 00:45:22;;;;;;;132.75;37.15;;;;;;;;;;5022958;28;20175;-80
2021/12/10 00:47:48;;;;;;;121.63;35.13;;;;;;;;;;5056522;28;20112;-80
2021/12/10 00:50:16;;;;;;;122.00;35.25;;;;;;;;;;5038814;28;20115;-80
2021/12/10 00:52:42;;;;;;;124.75;35.63;;;;;;;;;;5038854;28;20025;-79
2021/12/10 00:55:08;;;;;;;122.72;35.80;;;;;;;;;;5038862;28;20028;-80
2021/12/10 00:57:34;;;;;;;122.07;35.95;;;;;;;;;;5055163;28;20021;-80
2021/12/10 00:59:59;;;;;;;121.82;35.45;;;;;;;;;;5055373;28;20032;-80
2021/12/10 01:02:25;;;;;;;122.47;34.85;;;;;;;;;;5055679;28;20032;-80
2021/12/10 01:04:54;;;;;;;136.30;37.83;;;;;;;;;;5056607;28;20017;-81
2021/12/10 01:07:21;;;;;;;140.75;37.10;;;;;;;;;;5038428;28;20031;-79
2021/12/10 01:09:49;;;;;;;134.15;36.22;;;;;;;;;;5054929;28;20028;-80
2021/12/10 01:12:17;;;;;;;119.85;35.85;;;;;;;;;;5038127;28;20033;-81
2021/12/10 01:25:36;;;;;;;106.25;32.10;;;;;;;;;;5042632;28;20086;-81
2021/12/10 01:28:03;;;;;;;119.63;34.27;;;;;;;;;;5055921;28;20119;-79
2021/12/10 01:30:31;;;;;;;105.22;34.08;;;;;;;;;;5055827;28;20697;-80
2021/12/10 01:33:01;;;;;;;114.53;33.58;;;;;;;;;;5055764;28;20074;-82
2021/12/10 01:35:30;;;;;;;107.88;33.20;;;;;;;;;;5037964;28;20021;-79
2021/12/10 01:37:56;;;;;;;102.13;31.95;;;;;;;;;;5055578;28;20033;-81
2021/12/10 01:40:22;;;;;;;106.85;33.35;;;;;;;;;;5037665;28;20098;-81
2021/12/10 01:42:50;;;;;;;111.20;34.20;;;;;;;;;;5038086;28;20051;-81
2021/12/10 01:45:22;;;;;;;121.63;36.38;;;;;;;;;;5055537;28;20444;-81
2021/12/10 01:48:01;;;;;;;105.80;32.42;;;;;;;;;;5056397;28;20035;-80
2021/12/10 01:50:28;;;;;;;107.65;33.17;;;;;;;;;;5037107;28;20051;-81
2021/12/10 01:52:55;;;;;;;116.57;35.15;;;;;;;;;;5037512;28;20021;-81
2021/12/10 01:55:21;;;;;;;99.55;33.65;;;;;;;;;;5054026;28;20029;-78
2021/12/10 01:57:47;;;;;;;110.38;35.08;;;;;;;;;;5037658;28;20398;-79
2021/12/10 02:00:13;;;;;;;94.90;32.08;;;;;;;;;;5054322;28;20030;-79
2021/12/10 02:02:42;;;;;;;100.72;33.63;;;;;;;;;;5037804;28;20025;-79
2021/12/10 02:05:08;;;;;;;97.35;31.55;;;;;;;;;;5054544;28;20134;-79
2021/12/10 02:07:33;;;;;;;110.18;33.90;;;;;;;;;;5055502;28;20028;-79
2021/12/10 02:09:59;;;;;;;96.18;30.67;;;;;;;;;;5056063;28;20087;-78
2021/12/10 02:12:25;;;;;;;104.32;33.78;;;;;;;;;;5037533;28;20119;-78
2021/12/10 02:14:59;;;;;;;110.03;34.33;;;;;;;;;;5037210;28;20460;-79
2021/12/10 02:17:29;;;;;;;105.47;32.20;;;;;;;;;;5021917;28;20021;-79
2021/12/10 02:19:55;;;;;;;;;;;;;;;;;;5055284;28;20035;-79
2021/12/10 02:22:20;;;;;;;101.97;32.08;;;;;;;;;;5054917;28;19908;-79
2021/12/10 02:24:46;;;;;;;87.07;30.33;;;;;;;;;;5037149;28;20033;-80
2021/12/10 02:27:11;;;;;;;111.55;35.67;;;;;;;;;;5036994;28;20035;-80
2021/12/10 02:29:37;;;;;;;112.40;36.38;;;;;;;;;;5037894;28;20341;-79
2021/12/10 02:32:04;;;;;;;152.63;44.67;;;;;;;;;;5020904;28;20041;-79
2021/12/10 02:34:29;;;;;;;120.85;38.30;;;;;;;;;;5036720;28;20049;-79
2021/12/10 02:36:55;;;;;;;120.28;38.03;;;;;;;;;;5053382;28;20475;-78
2021/12/10 02:39:23;;;;;;;140.68;41.60;;;;;;;;;;5036299;28;20098;-78
2021/12/10 02:41:49;;;;;;;141.93;39.28;;;;;;;;;;5053506;28;20025;-80
2021/12/10 02:44:17;;;;;;;121.72;38.40;;;;;;;;;;5053177;28;20025;-80
2021/12/10 02:46:42;;;;;;;122.63;37.00;;;;;;;;;;5054323;28;20036;-80
2021/12/10 02:49:09;;;;;;;119.70;36.95;;;;;;;;;;5054218;28;20037;-79
2021/12/10 02:51:35;;;;;;;117.70;36.38;;;;;;;;;;5037001;28;20429;-80
2021/12/10 02:54:03;;;;;;;125.90;37.03;;;;;;;;;;5052980;28;20025;-79
2021/12/10 02:56:28;;;;;;;125.18;38.38;;;;;;;;;;5036772;28;20036;-79
2021/12/10 02:58:55;;;;;;;118.65;40.72;;;;;;;;;;5036780;28;20037;-80
2021/12/10 03:01:22;;;;;;;119.15;40.28;;;;;;;;;;5035907;28;20035;-80
2021/12/10 03:03:48;;;;;;;130.25;43.20;;;;;;;;;;5053757;28;20025;-80
2021/12/10 03:06:15;;;;;;;113.93;37.00;;;;;;;;;;5053981;28;20033;-79
2021/12/10 03:08:43;;;;;;;124.72;39.47;;;;;;;;;;5036127;28;20402;-80
2021/12/10 03:11:09;;;;;;;122.70;38.97;;;;;;;;;;5036557;28;20075;-81
2021/12/10 03:13:34;;;;;;;124.70;38.22;;;;;;;;;;5053108;28;20049;-80
2021/12/10 03:16:00;;;;;;;129.38;40.75;;;;;;;;;;5053981;28;20032;-80
2021/12/10 03:18:25;;;;;;;121.50;38.95;;;;;;;;;;5036367;28;20025;-80
2021/12/10 03:20:51;;;;;;;121.45;39.47;;;;;;;;;;5052438;28;20055;-80
2021/12/10 03:23:16;;;;;;;129.75;38.53;;;;;;;;;;5020018;28;20025;-79
2021/12/10 03:25:42;;;;;;;123.75;37.25;;;;;;;;;;5053808;28;20112;-80
2021/12/10 03:28:08;;;;;;;111.75;35.15;;;;;;;;;;5053668;28;20127;-80
2021/12/10 03:30:37;;;;;;;109.20;35.63;;;;;;;;;;5052555;28;20081;-80
2021/12/10 03:33:03;;;;;;;111.18;35.47;;;;;;;;;;5053744;28;20029;-80
2021/12/10 03:35:31;;;;;;;112.03;34.85;;;;;;;;;;5052497;28;20032;-80
2021/12/10 03:37:58;;;;;;;99.10;32.08;;;;;;;;;;5052438;28;20114;-80
2021/12/10 03:40:23;;;;;;;111.22;34.58;;;;;;;;;;5052665;28;20064;-80
2021/12/10 03:42:50;;;;;;;113.88;33.45;;;;;;;;;;5053850;28;20028;-80
2021/12/10 03:45:16;;;;;;;110.00;34.47;;;;;;;;;;5052818;28;20415;-80
2021/12/10 03:47:41;;;;;;;111.55;34.55;;;;;;;;;;5053669;28;20399;-79
2021/12/10 03:50:08;;;;;;;116.07;35.25;;;;;;;;;;5054276;28;20025;-80
2021/12/10 03:52:34;;;;;;;109.72;36.10;;;;;;;;;;5054035;28;20683;-80
2021/12/10 03:55:01;;;;;;;117.35;38.50;;;;;;;;;;5036112;28;20135;-79
2021/12/10 03:57:26;;;;;;;117.85;35.75;;;;;;;;;;5053576;28;20087;-80
2021/12/10 03:59:52;;;;;;;116.47;37.85;;;;;;;;;;5052305;28;20033;-80
2021/12/10 04:02:17;;;;;;;118.45;37.83;;;;;;;;;;5036234;28;20033;-80
2021/12/10 04:04:45;;;;;;;114.72;35.28;;;;;;;;;;5052018;28;20078;-79
2021/12/10 04:07:16;;;;;;;118.22;35.28;;;;;;;;;;5035752;28;20025;-79
2021/12/10 04:09:41;;;;;;;112.68;35.95;;;;;;;;;;5037426;28;20124;-80
2021/12/10 04:12:08;;;;;;;128.82;36.55;;;;;;;;;;5052601;28;20064;-80
2021/12/10 04:14:35;;;;;;;120.95;35.10;;;;;;;;;;5055107;28;20123;-80
2021/12/10 04:17:01;;;;;;;102.65;32.05;;;;;;;;;;5039598;28;20032;-80
2021/12/10 04:19:28;;;;;;;100.63;31.30;;;;;;;;;;5055961;28;20029;-79
2021/12/10 04:21:56;;;;;;;124.80;36.35;;;;;;;;;;5039693;28;20090;-80
2021/12/10 04:24:23;;;;;;;112.10;35.03;;;;;;;;;;5039745;28;20056;-80
2021/12/10 04:26:49;;;;;;;118.75;35.17;;;;;;;;;;5055913;28;20025;-80
2021/12/10 04:29:14;;;;;;;109.65;36.35;;;;;;;;;;5040113;28;20039;-80
2021/12/10 04:31:40;;;;;;;108.00;37.45;;;;;;;;;;5041474;28;20029;-80
2021/12/10 04:34:05;;;;;;;103.78;35.42;;;;;;;;;;5038628;28;20028;-79
2021/12/10 04:36:31;;;;;;;118.93;38.22;;;;;;;;;;5039311;28;20036;-80
2021/12/10 04:38:57;;;;;;;113.18;38.30;;;;;;;;;;5022584;28;20084;-79
2021/12/10 04:41:22;;;;;;;103.57;38.80;;;;;;;;;;5055743;28;20033;-80
2021/12/10 04:43:48;;;;;;;116.90;42.00;;;;;;;;;;5056625;28;20044;-80
2021/12/10 04:46:14;;;;;;;113.38;41.15;;;;;;;;;;5039007;28;20029;-79
2021/12/10 04:48:58;;;;;;;113.93;41.35;;;;;;;;;;5056621;28;20036;-79
2021/12/10 04:51:27;;;;;;;118.80;42.35;;;;;;;;;;5040157;28;20025;-80
2021/12/10 04:53:53;;;;;;;105.40;41.80;;;;;;;;;;5038669;28;20382;-80
2021/12/10 04:56:19;;;;;;;117.30;42.95;;;;;;;;;;5055770;28;20367;-80
2021/12/10 04:58:44;;;;;;;113.43;42.35;;;;;;;;;;5038649;28;20111;-80
2021/12/10 05:01:10;;;;;;;120.50;43.97;;;;;;;;;;5056827;28;20029;-79
2021/12/10 05:03:35;;;;;;;114.88;44.72;;;;;;;;;;5038306;28;20414;-79
2021/12/10 05:06:03;;;;;;;123.55;44.50;;;;;;;;;;5038819;28;20365;-79
2021/12/10 05:08:33;;;;;;;122.65;46.55;;;;;;;;;;5039420;28;20037;-77
2021/12/10 05:10:59;;;;;;;123.90;45.97;;;;;;;;;;5040986;28;20025;-76
2021/12/10 05:13:25;;;;;;;113.20;43.65;;;;;;;;;;5039220;28;20162;-80
2021/12/10 05:15:56;;;;;;;129.80;47.72;;;;;;;;;;5056020;28;20455;-78
2021/12/10 05:18:22;;;;;;;131.82;48.92;;;;;;;;;;5038883;28;20082;-79
2021/12/10 05:20:48;;;;;;;124.00;46.90;;;;;;;;;;5038489;28;20452;-78
2021/12/10 05:23:15;;;;;;;126.97;48.35;;;;;;;;;;5038564;28;20029;-82
2021/12/10 05:25:42;;;;;;;124.13;45.90;;;;;;;;;;5053764;28;20126;-80
2021/12/10 05:28:07;;;;;;;120.40;41.90;;;;;;;;;;5055410;28;20044;-80
2021/12/10 05:30:34;;;;;;;112.93;42.17;;;;;;;;;;5055467;28;20035;-80
2021/12/10 05:33:01;;;;;;;115.72;43.80;;;;;;;;;;5038149;28;20032;-80
2021/12/10 05:35:27;;;;;;;126.55;46.97;;;;;;;;;;5039141;28;20029;-80
2021/12/10 05:37:52;;;;;;;117.28;46.08;;;;;;;;;;5036990;28;20368;-80
2021/12/10 05:40:19;;;;;;;123.15;48.90;;;;;;;;;;5052957;28;20044;-81
2021/12/10 05:42:47;;;;;;;136.70;52.45;;;;;;;;;;5055240;28;20025;-82
2021/12/10 05:45:12;;;;;;;123.95;49.30;;;;;;;;;;5020218;28;20040;-81
2021/12/10 05:47:38;;;;;;;122.45;47.80;;;;;;;;;;5054752;28;20041;-79
2021/12/10 05:50:07;;;;;;;130.27;50.15;;;;;;;;;;5060460;28;20039;-79
2021/12/10 05:52:33;;;;;;;136.07;53.85;;;;;;;;;;5058932;28;20056;-81
2021/12/10 05:54:58;;;;;;;116.55;47.20;;;;;;;;;;5049856;28;20106;-79
2021/12/10 05:57:24;;;;;;;132.07;54.20;;;;;;;;;;5034769;28;20041;-81
2021/12/10 05:59:52;;;;;;;146.98;61.20;;;;;;;;;;5049396;28;20041;-79
2021/12/10 06:02:17;;;;;;;138.55;57.45;;;;;;;;;;5020525;28;20025;-79
2021/12/10 06:04:43;;;;;;;134.18;58.22;;;;;;;;;;5050295;28;20025;-78
2021/12/10 06:07:09;;;;;;;146.95;61.80;;;;;;;;;;5051709;28;20041;-78
2021/12/10 06:09:46;;;;;;;141.80;60.97;;;;;;;;;;5052498;28;20059;-77
2021/12/10 06:12:13;;;;;;;130.00;53.90;;;;;;;;;;5049893;28;20051;-78
2021/12/10 06:14:40;;;;;;;137.68;57.42;;;;;;;;;;5033454;28;20040;-77
2021/12/10 06:17:05;;;;;;;149.07;65.45;;;;;;;;;;5063973;28;20083;-78
2021/12/10 06:19:31;;;;;;;139.05;61.97;;;;;;;;;;5071195;28;20692;-79
2021/12/10 06:21:56;;;;;;;137.68;58.72;;;;;;;;;;5053610;28;20047;-76
2021/12/10 06:24:22;;;;;;;121.97;50.28;;;;;;;;;;5070317;28;20068;-76
2021/12/10 06:26:52;;;;;;;120.97;48.08;;;;;;;;;;5045949;28;20036;-78
2021/12/10 06:29:22;;;;;;;108.82;44.67;;;;;;;;;;5055096;28;20045;-77
2021/12/10 06:31:47;;;;;;;112.93;44.85;;;;;;;;;;5047579;28;20036;-77
2021/12/10 06:34:13;;;;;;;120.75;47.15;;;;;;;;;;5033745;28;20037;-78
2021/12/10 06:36:38;;;;;;;109.55;45.45;;;;;;;;;;5052093;28;20162;-77
2021/12/10 06:39:07;;;;;;;94.28;40.35;;;;;;;;;;5051385;28;20057;-77
2021/12/10 06:41:33;;;;;;;84.75;37.65;;;;;;;;;;5040678;28;20043;-77
2021/12/10 06:43:59;;;;;;;116.68;50.50;;;;;;;;;;5052599;28;20020;-77
2021/12/10 06:46:24;;;;;;;106.38;43.83;;;;;;;;;;5032762;28;20143;-78
2021/12/10 06:48:50;;;;;;;95.53;39.60;;;;;;;;;;5053316;28;20430;-78
2021/12/10 06:51:19;;;;;;;96.53;42.58;;;;;;;;;;5052644;28;20099;-79
2021/12/10 06:53:46;;;;;;;106.80;50.47;;;;;;;;;;5001986;28;20502;-79
2021/12/10 06:56:13;;;;;;;101.47;47.72;;;;;;;;;;5048666;28;20033;-78
2021/12/10 06:58:39;;;;;;;108.60;52.30;;;;;;;;;;5050754;28;20622;-78
2021/12/10 07:01:13;;;;;;;111.18;50.45;;;;;;;;;;5049035;28;20131;-79
2021/12/10 07:03:40;;;;;;;97.70;45.40;;;;;;;;;;4996101;28;20064;-79
2021/12/10 07:06:06;;;;;;;92.85;43.33;;;;;;;;;;5033746;28;20029;-78
2021/12/10 07:08:33;;;;;;;105.22;49.50;;;;;;;;;;5052378;28;20055;-77
2021/12/10 07:10:59;;;;;;;105.95;48.65;;;;;;;;;;5052189;28;20591;-78
2021/12/10 07:13:25;;;;;;;105.18;49.00;;;;;;;;;;5033174;28;20075;-79
2021/12/10 07:15:53;;;;;;;111.13;53.13;;;;;;;;;;5048992;28;20459;-78
2021/12/10 07:18:19;;;;;;;105.07;48.13;;;;;;;;;;5038352;28;20151;-77
2021/12/10 07:20:45;;;;;;;113.63;50.85;;;;;;;;;;5049626;28;20047;-78
2021/12/10 07:23:11;;;;;;;158.90;79.50;;;;;;;;;;5052873;28;20025;-79
2021/12/10 07:25:37;;;;;;;138.13;68.63;;;;;;;;;;5035218;28;20407;-78
2021/12/10 07:28:03;;;;;;;107.10;50.35;;;;;;;;;;5053099;28;20029;-77
2021/12/10 07:30:31;;;;;;;81.00;39.80;;;;;;;;;;5056769;28;20033;-77
2021/12/10 07:32:56;;;;;;;84.57;43.72;;;;;;;;;;5035039;28;20048;-77
2021/12/10 07:35:22;;;;;;;77.60;36.83;;;;;;;;;;5031029;28;20433;-80
2021/12/10 07:37:48;;;;;;;70.95;33.22;;;;;;;;;;5039271;28;20471;-78
2021/12/10 07:40:25;;;;;;;69.10;33.67;;;;;;;;;;5052529;28;21038;-78
2021/12/10 07:42:51;;;;;;;79.63;39.28;;;;;;;;;;5049224;28;20032;-79
2021/12/10 07:45:27;;;;;;;79.63;38.40;;;;;;;;;;5060908;28;20124;-77
2021/12/10 07:47:57;;;;;;;77.75;36.78;;;;;;;;;;5026654;28;20057;-80
2021/12/10 07:50:27;;;;;;;73.28;37.05;;;;;;;;;;5054321;28;20047;-77
2021/12/10 07:52:58;;;;;;;72.85;35.53;;;;;;;;;;5033462;28;20040;-77
2021/12/10 07:55:29;;;;;;;70.10;35.83;;;;;;;;;;5051151;28;20029;-77
2021/12/10 07:57:55;;;;;;;74.43;35.45;;;;;;;;;;5043000;28;20056;-78
2021/12/10 08:00:22;;;;;;;68.30;35.58;;;;;;;;;;5031010;28;20411;-78
2021/12/10 08:02:47;;;;;;;96.53;48.42;;;;;;;;;;5051898;28;20041;-77
2021/12/10 08:05:14;;;;;;;86.60;43.58;;;;;;;;;;5055082;28;20075;-80
2021/12/10 08:07:42;;;;;;;86.22;48.80;;;;;;;;;;5054786;28;20037;-75
2021/12/10 08:10:08;;;;;;;76.28;36.75;;;;;;;;;;5055583;28;20033;-78
2021/12/10 08:12:34;;;;;;;79.15;39.20;;;;;;;;;;5054504;28;20037;-79
2021/12/10 08:14:59;;;;;;;67.22;32.92;;;;;;;;;;5053792;28;20033;-79
2021/12/10 08:17:25;;;;;;;84.00;39.88;;;;;;;;;;5036507;28;20044;-77
2021/12/10 08:19:51;;;;;;;68.45;33.92;;;;;;;;;;5053823;28;20444;-80
2021/12/10 08:22:17;;;;;;;51.55;27.13;;;;;;;;;;5053049;28;20029;-78
2021/12/10 08:24:43;;;;;;;53.58;26.70;;;;;;;;;;5055216;28;20089;-79
2021/12/10 08:27:08;;;;;;;48.45;24.92;;;;;;;;;;5052212;28;20060;-78
2021/12/10 08:29:34;;;;;;;54.63;29.13;;;;;;;;;;5066136;28;20037;-77
2021/12/10 08:31:59;;;;;;;51.97;26.45;;;;;;;;;;5057102;28;20040;-77
2021/12/10 08:34:31;;;;;;;74.60;35.90;;;;;;;;;;5058422;28;20474;-78
2021/12/10 08:36:56;;;;;;;82.65;40.28;;;;;;;;;;5052722;28;20040;-79
2021/12/10 08:39:22;;;;;;;81.65;38.97;;;;;;;;;;5037030;28;20053;-79
2021/12/10 08:41:47;;;;;;;89.72;40.17;;;;;;;;;;5027343;28;20026;-80
2021/12/10 08:44:13;;;;;;;73.50;34.50;;;;;;;;;;4993102;28;20029;-79
2021/12/10 08:46:39;;;;;;;77.50;39.30;;;;;;;;;;5012103;28;20034;-78
2021/12/10 08:49:05;;;;;;;119.30;67.63;;;;;;;;;;5034510;28;20026;-80
2021/12/10 08:51:37;;;;;;;69.53;33.88;;;;;;;;;;5025828;28;20046;-78
2021/12/10 08:54:03;;;;;;;56.35;28.13;;;;;;;;;;4990843;28;20026;-79
2021/12/10 08:56:29;;;;;;;52.30;24.42;;;;;;;;;;4989243;28;20037;-79
2021/12/10 08:58:56;;;;;;;52.17;25.40;;;;;;;;;;4972562;28;20381;-80
2021/12/10 09:01:24;;;;;;;56.97;29.10;;;;;;;;;;5005830;28;20125;-80
2021/12/10 09:03:52;;;;;;;46.22;23.77;;;;;;;;;;5005881;28;20038;-78
2021/12/10 09:06:22;;;;;;;47.60;26.48;;;;;;;;;;4991811;28;20034;-79
2021/12/10 09:08:48;;;;;;;44.53;22.73;;;;;;;;;;5015175;28;20060;-80
2021/12/10 09:11:13;;;;;;;34.72;19.40;;;;;;;;;;4997924;28;20445;-79
2021/12/10 09:13:42;;;;;;;35.65;18.98;;;;;;;;;;5006575;28;20622;-80
2021/12/10 09:16:18;;;;;;;40.33;21.83;;;;;;;;;;5027590;28;20324;-80
2021/12/10 09:18:44;;;;;;;41.08;20.45;;;;;;;;;;5010872;28;20022;-83
2021/12/10 09:21:10;;;;;;;48.40;26.70;;;;;;;;;;5009608;28;20084;-80
2021/12/10 09:23:36;;;;;;;60.28;33.45;;;;;;;;;;5010464;28;20076;-79
2021/12/10 09:26:05;;;;;;;51.55;28.48;;;;;;;;;;4995327;28;20449;-80
2021/12/10 09:28:31;;;;;;;46.03;23.37;;;;;;;;;;5031175;28;20106;-79
2021/12/10 09:30:58;;;;;;;45.97;25.15;;;;;;;;;;5040051;28;20085;-79
2021/12/10 09:33:23;;;;;;;60.30;33.88;;;;;;;;;;5015936;28;20060;-78
2021/12/10 09:35:49;;;;;;;44.78;24.52;;;;;;;;;;5016635;28;20049;-75
2021/12/10 09:38:15;;;;;;;44.97;24.08;;;;;;;;;;5016783;28;20049;-77
2021/12/10 09:40:44;;;;;;;43.53;26.35;;;;;;;;;;5056499;28;20108;-79
2021/12/10 09:43:11;;;;;;;45.20;26.73;;;;;;;;;;5065065;28;20025;-78
2021/12/10 09:45:38;;;;;;;45.70;26.50;;;;;;;;;;5072103;28;20057;-78
2021/12/10 09:48:14;;;;;;;51.30;30.73;;;;;;;;;;5052040;28;20043;-80
2021/12/10 09:50:46;;;;;;;42.60;24.27;;;;;;;;;;5054963;28;20025;-79
2021/12/10 09:53:12;;;;;;;31.58;17.90;;;;;;;;;;5051838;28;20456;-78
2021/12/10 09:55:37;;;;;;;34.30;17.65;;;;;;;;;;5069416;28;20107;-78
2021/12/10 09:58:03;;;;;;;41.05;23.05;;;;;;;;;;5035495;28;20045;-78
2021/12/10 10:00:50;;;;;;;40.80;21.95;;;;;;;;;;5062311;28;20136;-78
2021/12/10 10:03:17;;;;;;;42.80;21.88;;;;;;;;;;5041974;28;20486;-79
2021/12/10 10:05:45;;;;;;;44.67;22.70;;;;;;;;;;5034751;28;20021;-77
2021/12/10 10:08:13;;;;;;;42.60;20.65;;;;;;;;;;5037813;28;20029;-78
2021/12/10 10:10:39;;;;;;;44.72;26.35;;;;;;;;;;5005995;28;20035;-78
2021/12/10 10:13:05;;;;;;;38.22;21.13;;;;;;;;;;5035959;28;20032;-78
2021/12/10 10:15:32;;;;;;;46.25;27.73;;;;;;;;;;5035701;28;20025;-78
2021/12/10 10:17:59;;;;;;;34.45;18.77;;;;;;;;;;5003014;28;20438;-79
2021/12/10 10:20:25;;;;;;;43.45;28.38;;;;;;;;;;5019148;28;20029;-79
2021/12/10 10:22:51;;;;;;;34.95;22.10;;;;;;;;;;5035077;28;20033;-79
2021/12/10 10:25:18;;;;;;;31.95;20.00;;;;;;;;;;5018901;28;20391;-79
2021/12/10 10:27:43;;;;;;;30.85;19.23;;;;;;;;;;5035656;28;20120;-80
2021/12/10 10:30:14;;;;;;;26.45;14.82;;;;;;;;;;5028408;28;20060;-78
2021/12/10 10:32:43;;;;;;;;;;;;;;;;;;5054516;28;20442;-79
2021/12/10 10:35:15;;;;;;;56.85;35.08;;;;;;;;;;5054365;28;19948;-79
2021/12/10 10:37:41;;;;;;;25.42;15.20;;;;;;;;;;5020577;28;20119;-79
2021/12/10 10:40:07;;;;;;;28.42;16.30;;;;;;;;;;5019923;28;20141;-79
2021/12/10 10:42:33;;;;;;;23.48;13.77;;;;;;;;;;5039485;28;20077;-80
2021/12/10 10:45:02;;;;;;;22.77;13.68;;;;;;;;;;5043395;28;20028;-80
2021/12/10 10:47:28;;;;;;;25.77;14.32;;;;;;;;;;5048499;28;20029;-77
2021/12/10 10:50:18;;;;;;;25.08;13.82;;;;;;;;;;5068876;28;20036;-77
2021/12/10 10:52:55;;;;;;;54.57;29.43;;;;;;;;;;5021168;28;20143;-79
2021/12/10 10:56:01;;;;;;;26.23;14.75;;;;;;;;;;5031363;28;20060;-79
2021/12/10 10:58:30;;;;;;;28.23;17.25;;;;;;;;;;5049254;28;20216;-80
2021/12/10 11:01:14;;;;;;;38.15;25.05;;;;;;;;;;5049318;28;20072;-79
2021/12/10 11:03:46;;;;;;;67.50;41.92;;;;;;;;;;5049279;28;20197;-79
2021/12/10 11:06:14;;;;;;;40.22;26.27;;;;;;;;;;5049706;28;20052;-79
2021/12/10 11:08:48;;;;;;;31.83;19.13;;;;;;;;;;5052053;28;20044;-79
2021/12/10 11:11:21;;;;;;;30.23;17.33;;;;;;;;;;5054531;28;20035;-80
2021/12/10 11:13:50;;;;;;;31.55;17.55;;;;;;;;;;5051661;28;20079;-80
2021/12/10 11:16:20;;;;;;;36.72;18.95;;;;;;;;;;5048586;28;20029;-80
2021/12/10 11:18:48;;;;;;;28.48;16.58;;;;;;;;;;5049236;28;20024;-80
2021/12/10 11:21:14;;;;;;;30.48;17.17;;;;;;;;;;5049952;28;20021;-79
2021/12/10 11:23:41;;;;;;;26.35;15.43;;;;;;;;;;5050010;28;20108;-79
2021/12/10 11:26:07;;;;;;;29.55;16.15;;;;;;;;;;5052576;28;20025;-80
2021/12/10 11:28:35;;;;;;;34.63;18.45;;;;;;;;;;5052403;28;20404;-80
2021/12/10 11:31:13;;;;;;;27.77;16.25;;;;;;;;;;5041309;28;20060;-79
2021/12/10 11:33:49;;;;;;;27.60;15.82;;;;;;;;;;5052710;28;20055;-79
2021/12/10 11:36:24;;;;;;;24.60;14.48;;;;;;;;;;5036234;28;20032;-78
2021/12/10 11:38:55;;;;;;;28.67;13.90;;;;;;;;;;5044345;28;20050;-77
2021/12/10 11:41:23;;;;;;;29.20;15.43;;;;;;;;;;5011858;28;20033;-81
2021/12/10 11:44:07;;;;;;;34.90;18.90;;;;;;;;;;5012219;28;20026;-79
2021/12/10 11:47:23;;;;;;;31.75;18.50;;;;;;;;;;4991783;28;20035;-79
2021/12/10 11:49:49;;;;;;;41.85;19.42;;;;;;;;;;5015445;28;20096;-79
2021/12/10 11:52:17;;;;;;;30.27;15.10;;;;;;;;;;5013367;28;20531;-80
2021/12/10 11:55:07;;;;;;;29.45;15.00;;;;;;;;;;5010714;28;20492;-81
2021/12/10 11:57:38;;;;;;;45.75;23.75;;;;;;;;;;5027703;28;20042;-79
2021/12/10 12:00:14;;;;;;;46.00;25.17;;;;;;;;;;4994207;28;20029;-80
2021/12/10 12:02:53;;;;;;;54.85;27.90;;;;;;;;;;5012525;28;20030;-80
2021/12/10 12:05:28;;;;;;;49.88;24.52;;;;;;;;;;5010200;28;20036;-79
2021/12/10 12:07:55;;;;;;;50.28;24.00;;;;;;;;;;4999083;28;20085;-79
2021/12/10 12:10:37;;;;;;;40.85;20.33;;;;;;;;;;5014835;28;20030;-79
2021/12/10 12:13:20;;;;;;;30.88;16.58;;;;;;;;;;5026058;28;20049;-80
2021/12/10 12:16:13;;;;;;;37.05;19.13;;;;;;;;;;5009207;28;20021;-80
2021/12/10 12:18:46;;;;;;;71.97;31.38;;;;;;;;;;5010265;28;20137;-78
2021/12/10 12:27:14;;;;;;;36.28;18.48;;;;;;;;;;5011438;28;20104;-79
2021/12/10 12:29:53;;;;;;;37.38;18.98;;;;;;;;;;5011023;28;20445;-78
2021/12/10 12:32:26;;;;;;;36.72;19.75;;;;;;;;;;4994877;28;20052;-78
2021/12/10 12:34:51;;;;;;;75.55;31.63;;;;;;;;;;5004201;28;20115;-80
2021/12/10 12:37:20;;;;;;;56.80;25.60;;;;;;;;;;5006560;28;20038;-77
2021/12/10 12:39:57;;;;;;;45.03;23.27;;;;;;;;;;5037574;28;20057;-80
2021/12/10 12:42:31;;;;;;;42.97;21.27;;;;;;;;;;5053896;28;20033;-80
2021/12/10 12:45:18;;;;;;;44.88;23.52;;;;;;;;;;5069469;28;20123;-77
2021/12/10 12:47:46;;;;;;;49.88;25.13;;;;;;;;;;5058237;28;20029;-78
2021/12/10 12:50:26;;;;;;;51.83;26.13;;;;;;;;;;5073950;28;20032;-78
2021/12/10 12:52:53;;;;;;;41.13;20.20;;;;;;;;;;5052772;28;20029;-78
2021/12/10 12:55:25;;;;;;;39.40;21.23;;;;;;;;;;5068897;28;20334;-78
2021/12/10 12:58:21;;;;;;;44.42;23.35;;;;;;;;;;5053286;28;20025;-78
2021/12/10 13:00:55;;;;;;;54.13;24.80;;;;;;;;;;5052908;28;20025;-78
2021/12/10 13:03:29;;;;;;;48.35;24.02;;;;;;;;;;5052038;28;20185;-78
2021/12/10 13:06:21;;;;;;;64.45;31.73;;;;;;;;;;5055486;28;20029;-78
2021/12/10 13:09:13;;;;;;;51.28;24.48;;;;;;;;;;5082290;28;20049;-78
2021/12/10 13:11:48;;;;;;;73.05;30.00;;;;;;;;;;5070246;28;20041;-79
2021/12/10 13:14:18;;;;;;;80.18;36.20;;;;;;;;;;5053498;28;20132;-80
2021/12/10 13:16:45;;;;;;;59.92;27.70;;;;;;;;;;5070926;28;20036;-81
2021/12/10 13:19:17;;;;;;;61.35;28.65;;;;;;;;;;5056080;28;20426;-79
2021/12/10 13:21:44;;;;;;;116.97;39.65;;;;;;;;;;5070947;28;20399;-80
2021/12/10 13:24:10;;;;;;;92.68;36.13;;;;;;;;;;5054468;28;20033;-79
2021/12/10 13:26:36;;;;;;;73.97;34.50;;;;;;;;;;5039639;28;20371;-81
2021/12/10 13:29:01;;;;;;;71.18;34.50;;;;;;;;;;5060070;28;20147;-79
2021/12/10 13:31:27;;;;;;;79.00;32.97;;;;;;;;;;5072935;28;20368;-79
2021/12/10 13:33:52;;;;;;;83.72;33.22;;;;;;;;;;5054715;28;20102;-78
2021/12/10 13:36:18;;;;;;;73.63;32.72;;;;;;;;;;5054538;28;20032;-79
2021/12/10 13:38:47;;;;;;;76.55;34.28;;;;;;;;;;5054468;28;20045;-78
2021/12/10 13:41:13;;;;;;;103.57;38.83;;;;;;;;;;5038315;28;20040;-78
2021/12/10 13:43:40;;;;;;;133.15;49.15;;;;;;;;;;5054329;28;20029;-79
2021/12/10 13:46:11;;;;;;;89.43;41.35;;;;;;;;;;5053549;28;20025;-85
2021/12/10 13:48:41;;;;;;;63.25;27.73;;;;;;;;;;5039522;28;20417;-86
2021/12/10 13:51:08;;;;;;;;;;;;;;;;;;5072818;28;20035;-83
2021/12/10 13:53:33;;;;;;;66.22;29.35;;;;;;;;;;5054374;28;20269;-82
2021/12/10 13:56:09;;;;;;;86.40;37.63;;;;;;;;;;5054220;28;20036;-82
2021/12/10 13:58:55;;;;;;;74.65;35.15;;;;;;;;;;5054166;28;20104;-82
2021/12/10 14:01:30;;;;;;;72.65;34.00;;;;;;;;;;5054112;28;20056;-83
2021/12/10 14:03:59;;;;;;;75.70;35.15;;;;;;;;;;5053925;28;20032;-82
2021/12/10 14:06:35;;;;;;;65.93;28.52;;;;;;;;;;5053989;28;20025;-83
2021/12/10 14:09:20;;;;;;;65.03;28.13;;;;;;;;;;5063458;28;20076;-81
2021/12/10 14:12:10;;;;;;;73.18;30.30;;;;;;;;;;5054060;28;20078;-81
2021/12/10 14:14:38;;;;;;;59.92;25.85;;;;;;;;;;5054869;28;20027;-81
2021/12/10 14:17:09;;;;;;;63.03;27.63;;;;;;;;;;5053767;28;20364;-82
2021/12/10 14:19:36;;;;;;;57.20;26.40;;;;;;;;;;5053869;28;20112;-82
2021/12/10 14:22:05;;;;;;;62.25;26.17;;;;;;;;;;5054176;28;20029;-82
2021/12/10 14:24:45;;;;;;;65.55;27.23;;;;;;;;;;5053885;28;20021;-81
2021/12/10 14:27:10;;;;;;;80.90;34.17;;;;;;;;;;5038132;28;20029;-81
2021/12/10 14:29:36;;;;;;;99.72;43.35;;;;;;;;;;5059004;28;20355;-82
2021/12/10 14:32:01;;;;;;;84.22;35.42;;;;;;;;;;5053426;28;20039;-82
2021/12/10 14:34:27;;;;;;;87.82;36.20;;;;;;;;;;5053446;28;20103;-81
2021/12/10 14:37:08;;;;;;;83.10;35.50;;;;;;;;;;5070483;28;20079;-81